PUSSH SBBH-SBBH
Flight info
| Callsign | PUSSH |
|---|---|
| Flight time | 1h 12m |
| Altitude | 5500 |
| Route | REA 195026S0443604W DCT |
| Aircraft | RV7/L-SDFGRY/L |
Departure
| Time | 2026-04-28 16:16 |
|---|---|
| Airport | Pampulha - Carlos Drummond de Andrade Airport (SBBH) |
Arrival
| Time | 2026-04-28 17:29 |
|---|---|
| Airport | Pampulha - Carlos Drummond de Andrade Airport (SBBH) |
| Time | Latitude | Longitude | Altitude | Speed | Heading |
|---|---|---|---|---|---|
| 2026-04-28 16:08 | -19.85148 | -43.95408 | 2585 ft | 0 kts | 108° |
| 2026-04-28 16:13 | -19.85098 | -43.95398 | 2583 ft | 13 kts | 300° |
| 2026-04-28 16:14 | -19.84975 | -43.95535 | 2586 ft | 0 kts | 19° |
| 2026-04-28 16:15 | -19.84952 | -43.95526 | 2589 ft | 8 kts | 18° |
| 2026-04-28 16:15 | -19.84922 | -43.95446 | 2588 ft | 17 kts | 112° |
| 2026-04-28 16:15 | -19.85008 | -43.95210 | 2594 ft | 65 kts | 111° |
| 2026-04-28 16:16 | -19.85542 | -43.93998 | 3169 ft | 109 kts | 140° |
| 2026-04-28 16:16 | -19.86245 | -43.94030 | 3421 ft | 119 kts | 230° |
| 2026-04-28 16:17 | -19.86815 | -43.95757 | 4031 ft | 131 kts | 253° |
| 2026-04-28 16:17 | -19.87080 | -43.96670 | 4487 ft | 128 kts | 252° |
| 2026-04-28 16:17 | -19.87358 | -43.97613 | 4709 ft | 138 kts | 251° |
| 2026-04-28 16:17 | -19.87579 | -43.98594 | 5145 ft | 135 kts | 257° |
| 2026-04-28 16:18 | -19.87772 | -43.99533 | 5538 ft | 135 kts | 257° |
| 2026-04-28 16:18 | -19.87839 | -44.00609 | 5579 ft | 156 kts | 278° |
| 2026-04-28 16:18 | -19.87837 | -44.01780 | 5711 ft | 162 kts | 262° |
| 2026-04-28 16:18 | -19.87976 | -44.02946 | 5987 ft | 157 kts | 262° |
| 2026-04-28 16:19 | -19.88102 | -44.04138 | 5945 ft | 161 kts | 260° |
| 2026-04-28 16:19 | -19.88358 | -44.05268 | 5869 ft | 160 kts | 252° |
| 2026-04-28 16:19 | -19.88721 | -44.06456 | 5554 ft | 174 kts | 253° |
| 2026-04-28 16:19 | -19.89077 | -44.07647 | 5530 ft | 163 kts | 252° |
| 2026-04-28 16:20 | -19.89394 | -44.08750 | 5521 ft | 153 kts | 252° |
| 2026-04-28 16:20 | -19.89701 | -44.09804 | 5513 ft | 151 kts | 252° |
| 2026-04-28 16:20 | -19.90010 | -44.10866 | 5503 ft | 151 kts | 253° |
| 2026-04-28 16:20 | -19.90253 | -44.11916 | 5502 ft | 142 kts | 256° |
| 2026-04-28 16:21 | -19.90482 | -44.12948 | 5508 ft | 145 kts | 256° |
| 2026-04-28 16:21 | -19.90703 | -44.13967 | 5489 ft | 138 kts | 257° |
| 2026-04-28 16:21 | -19.90912 | -44.14940 | 5489 ft | 133 kts | 256° |
| 2026-04-28 16:21 | -19.91115 | -44.15870 | 5488 ft | 129 kts | 256° |
| 2026-04-28 16:22 | -19.91313 | -44.16789 | 5485 ft | 126 kts | 256° |
| 2026-04-28 16:22 | -19.91513 | -44.17713 | 5476 ft | 131 kts | 256° |
| 2026-04-28 16:22 | -19.91713 | -44.18638 | 5497 ft | 128 kts | 256° |
| 2026-04-28 16:22 | -19.91849 | -44.19254 | 5497 ft | 131 kts | 256° |
| 2026-04-28 16:23 | -19.92062 | -44.20207 | 5494 ft | 133 kts | 256° |
| 2026-04-28 16:23 | -19.92281 | -44.21216 | 5536 ft | 152 kts | 255° |
| 2026-04-28 16:23 | -19.92544 | -44.22396 | 5558 ft | 172 kts | 257° |
| 2026-04-28 16:23 | -19.92821 | -44.23651 | 5537 ft | 175 kts | 256° |
| 2026-04-28 16:24 | -19.93095 | -44.24918 | 5529 ft | 175 kts | 257° |
| 2026-04-28 16:24 | -19.93377 | -44.26191 | 5542 ft | 181 kts | 256° |
| 2026-04-28 16:24 | -19.93661 | -44.27524 | 5552 ft | 187 kts | 257° |
| 2026-04-28 16:24 | -19.93885 | -44.28544 | 5517 ft | 181 kts | 256° |
| 2026-04-28 16:25 | -19.94168 | -44.29828 | 5522 ft | 179 kts | 256° |
| 2026-04-28 16:25 | -19.94415 | -44.31100 | 5519 ft | 176 kts | 264° |
| 2026-04-28 16:25 | -19.94326 | -44.31969 | 5518 ft | 176 kts | 283° |
| 2026-04-28 16:25 | -19.93820 | -44.33591 | 5505 ft | 173 kts | 289° |
| 2026-04-28 16:26 | -19.93425 | -44.34790 | 5515 ft | 171 kts | 288° |
| 2026-04-28 16:26 | -19.93033 | -44.35986 | 5504 ft | 169 kts | 288° |
| 2026-04-28 16:26 | -19.92649 | -44.37170 | 5503 ft | 170 kts | 288° |
| 2026-04-28 16:26 | -19.92263 | -44.38365 | 5509 ft | 172 kts | 288° |
| 2026-04-28 16:27 | -19.91834 | -44.39551 | 5513 ft | 173 kts | 291° |
| 2026-04-28 16:27 | -19.91358 | -44.40719 | 5515 ft | 171 kts | 294° |
| 2026-04-28 16:27 | -19.90380 | -44.43038 | 5512 ft | 172 kts | 293° |
| 2026-04-28 16:28 | -19.89882 | -44.44195 | 5508 ft | 173 kts | 294° |
| 2026-04-28 16:28 | -19.89387 | -44.45367 | 5499 ft | 173 kts | 293° |
| 2026-04-28 16:28 | -19.88896 | -44.46520 | 5503 ft | 170 kts | 293° |
| 2026-04-28 16:28 | -19.88425 | -44.47640 | 5499 ft | 166 kts | 293° |
| 2026-04-28 16:29 | -19.87508 | -44.49786 | 5243 ft | 153 kts | 294° |
| 2026-04-28 16:29 | -19.86649 | -44.51825 | 4769 ft | 150 kts | 293° |
| 2026-04-28 16:30 | -19.86170 | -44.52820 | 4520 ft | 151 kts | 305° |
| 2026-04-28 16:30 | -19.85505 | -44.53667 | 4304 ft | 148 kts | 309° |
| 2026-04-28 16:30 | -19.84832 | -44.54502 | 4064 ft | 148 kts | 310° |
| 2026-04-28 16:30 | -19.84219 | -44.55348 | 3835 ft | 144 kts | 295° |
| 2026-04-28 16:31 | -19.83902 | -44.56326 | 3713 ft | 132 kts | 285° |
| 2026-04-28 16:31 | -19.83660 | -44.57253 | 3675 ft | 128 kts | 282° |
| 2026-04-28 16:31 | -19.83448 | -44.58159 | 3592 ft | 131 kts | 284° |
| 2026-04-28 16:31 | -19.83185 | -44.59110 | 3488 ft | 131 kts | 286° |
| 2026-04-28 16:32 | -19.82940 | -44.59946 | 3484 ft | 110 kts | 287° |
| 2026-04-28 16:32 | -19.82615 | -44.61271 | 3404 ft | 80 kts | 259° |
| 2026-04-28 16:32 | -19.82993 | -44.61640 | 3279 ft | 80 kts | 189° |
| 2026-04-28 16:33 | -19.83536 | -44.61548 | 3135 ft | 78 kts | 163° |
| 2026-04-28 16:33 | -19.83864 | -44.61377 | 3051 ft | 80 kts | 140° |
| 2026-04-28 16:33 | -19.84144 | -44.60636 | 2770 ft | 81 kts | 101° |
| 2026-04-28 16:33 | -19.84226 | -44.60131 | 2791 ft | 69 kts | 99° |
| 2026-04-28 16:34 | -19.84315 | -44.59598 | 3033 ft | 64 kts | 101° |
| 2026-04-28 16:34 | -19.84370 | -44.59070 | 3321 ft | 87 kts | 93° |
| 2026-04-28 16:34 | -19.84174 | -44.58456 | 3566 ft | 102 kts | 22° |
| 2026-04-28 16:34 | -19.83638 | -44.58863 | 3676 ft | 112 kts | 288° |
| 2026-04-28 16:35 | -19.83391 | -44.59687 | 3676 ft | 112 kts | 285° |
| 2026-04-28 16:35 | -19.83212 | -44.60448 | 3691 ft | 101 kts | 281° |
| 2026-04-28 16:35 | -19.83106 | -44.61156 | 3675 ft | 98 kts | 274° |
| 2026-04-28 16:35 | -19.83194 | -44.61820 | 3595 ft | 87 kts | 233° |
| 2026-04-28 16:36 | -19.83691 | -44.62001 | 3488 ft | 77 kts | 153° |
| 2026-04-28 16:36 | -19.84002 | -44.61451 | 3030 ft | 99 kts | 107° |
| 2026-04-28 16:36 | -19.84129 | -44.60747 | 2785 ft | 90 kts | 101° |
| 2026-04-28 16:36 | -19.84218 | -44.60184 | 2787 ft | 74 kts | 100° |
| 2026-04-28 16:37 | -19.84328 | -44.59523 | 3192 ft | 95 kts | 101° |
| 2026-04-28 16:37 | -19.84423 | -44.58835 | 3734 ft | 90 kts | 78° |
| 2026-04-28 16:37 | -19.83874 | -44.58583 | 3784 ft | 108 kts | 334° |
| 2026-04-28 16:38 | -19.83357 | -44.60094 | 3697 ft | 108 kts | 275° |
| 2026-04-28 16:38 | -19.83241 | -44.60837 | 3667 ft | 102 kts | 277° |
| 2026-04-28 16:38 | -19.83146 | -44.61586 | 3555 ft | 101 kts | 277° |
| 2026-04-28 16:38 | -19.83087 | -44.62320 | 3455 ft | 101 kts | 256° |
| 2026-04-28 16:39 | -19.83589 | -44.62619 | 3385 ft | 95 kts | 157° |
| 2026-04-28 16:39 | -19.83899 | -44.61993 | 3099 ft | 99 kts | 104° |
| 2026-04-28 16:39 | -19.84041 | -44.61315 | 2883 ft | 88 kts | 103° |
| 2026-04-28 16:39 | -19.84132 | -44.60729 | 2782 ft | 72 kts | 101° |
| 2026-04-28 16:40 | -19.84205 | -44.60253 | 2780 ft | 76 kts | 99° |
| 2026-04-28 16:40 | -19.84328 | -44.59566 | 3157 ft | 101 kts | 101° |
| 2026-04-28 16:40 | -19.84551 | -44.58831 | 3737 ft | 106 kts | 128° |
| 2026-04-28 16:40 | -19.84982 | -44.58119 | 4271 ft | 120 kts | 123° |
| 2026-04-28 16:41 | -19.85372 | -44.57469 | 4532 ft | 108 kts | 124° |
| 2026-04-28 16:41 | -19.85742 | -44.56800 | 4680 ft | 113 kts | 122° |
| 2026-04-28 16:41 | -19.86179 | -44.56028 | 4610 ft | 125 kts | 122° |
| 2026-04-28 16:41 | -19.86604 | -44.55273 | 4712 ft | 113 kts | 121° |
| 2026-04-28 16:42 | -19.87003 | -44.54559 | 4734 ft | 113 kts | 122° |
| 2026-04-28 16:42 | -19.87409 | -44.53834 | 4769 ft | 114 kts | 122° |
| 2026-04-28 16:42 | -19.87802 | -44.53139 | 4887 ft | 108 kts | 123° |
| 2026-04-28 16:42 | -19.88196 | -44.52445 | 5012 ft | 111 kts | 122° |
| 2026-04-28 16:43 | -19.88599 | -44.51746 | 5148 ft | 108 kts | 122° |
| 2026-04-28 16:43 | -19.88976 | -44.51079 | 5278 ft | 104 kts | 122° |
| 2026-04-28 16:43 | -19.89351 | -44.50415 | 5400 ft | 105 kts | 122° |
| 2026-04-28 16:43 | -19.89738 | -44.49737 | 5492 ft | 114 kts | 122° |
| 2026-04-28 16:44 | -19.90151 | -44.48991 | 5512 ft | 120 kts | 122° |
| 2026-04-28 16:44 | -19.90600 | -44.48209 | 5520 ft | 127 kts | 122° |
| 2026-04-28 16:44 | -19.91040 | -44.47367 | 5527 ft | 136 kts | 118° |
| 2026-04-28 16:44 | -19.91470 | -44.46470 | 5553 ft | 137 kts | 118° |
| 2026-04-28 16:45 | -19.91911 | -44.45546 | 5514 ft | 142 kts | 118° |
| 2026-04-28 16:45 | -19.92362 | -44.44615 | 5522 ft | 141 kts | 120° |
| 2026-04-28 16:45 | -19.92647 | -44.43622 | 5515 ft | 141 kts | 104° |
| 2026-04-28 16:45 | -19.93001 | -44.42666 | 5514 ft | 140 kts | 117° |
| 2026-04-28 16:46 | -19.93453 | -44.41683 | 5523 ft | 158 kts | 117° |
| 2026-04-28 16:46 | -19.93941 | -44.40616 | 5608 ft | 166 kts | 116° |
| 2026-04-28 16:46 | -19.94467 | -44.39531 | 5574 ft | 164 kts | 126° |
| 2026-04-28 16:46 | -19.95415 | -44.38909 | 5517 ft | 162 kts | 169° |
| 2026-04-28 16:47 | -19.96450 | -44.39179 | 5519 ft | 159 kts | 219° |
| 2026-04-28 16:47 | -19.97072 | -44.40145 | 5515 ft | 159 kts | 245° |
| 2026-04-28 16:47 | -19.97571 | -44.41181 | 5515 ft | 156 kts | 240° |
| 2026-04-28 16:47 | -19.98093 | -44.42168 | 5509 ft | 156 kts | 240° |
| 2026-04-28 16:48 | -19.98619 | -44.43175 | 5512 ft | 156 kts | 241° |
| 2026-04-28 16:48 | -19.99149 | -44.44193 | 5517 ft | 161 kts | 241° |
| 2026-04-28 16:48 | -19.99700 | -44.45256 | 5513 ft | 166 kts | 241° |
| 2026-04-28 16:48 | -20.00261 | -44.46319 | 5529 ft | 163 kts | 240° |
| 2026-04-28 16:49 | -20.00825 | -44.47399 | 5516 ft | 169 kts | 241° |
| 2026-04-28 16:49 | -20.01388 | -44.48492 | 5526 ft | 166 kts | 243° |
| 2026-04-28 16:49 | -20.01946 | -44.49576 | 5510 ft | 168 kts | 241° |
| 2026-04-28 16:49 | -20.02494 | -44.50649 | 5516 ft | 163 kts | 241° |
| 2026-04-28 16:50 | -20.03047 | -44.51713 | 5494 ft | 163 kts | 241° |
| 2026-04-28 16:50 | -20.03588 | -44.52759 | 5505 ft | 161 kts | 241° |
| 2026-04-28 16:50 | -20.04130 | -44.53798 | 5503 ft | 159 kts | 242° |
| 2026-04-28 16:50 | -20.04664 | -44.54833 | 5507 ft | 160 kts | 240° |
| 2026-04-28 16:51 | -20.05193 | -44.55850 | 5495 ft | 156 kts | 241° |
| 2026-04-28 16:51 | -20.05714 | -44.56852 | 5497 ft | 155 kts | 240° |
| 2026-04-28 16:51 | -20.06239 | -44.57858 | 5482 ft | 154 kts | 241° |
| 2026-04-28 16:51 | -20.06687 | -44.58898 | 5270 ft | 156 kts | 257° |
| 2026-04-28 16:52 | -20.06862 | -44.60047 | 5053 ft | 156 kts | 262° |
| 2026-04-28 16:52 | -20.06956 | -44.61197 | 4861 ft | 157 kts | 268° |
| 2026-04-28 16:52 | -20.06954 | -44.62363 | 4641 ft | 160 kts | 276° |
| 2026-04-28 16:52 | -20.06719 | -44.63508 | 4450 ft | 155 kts | 283° |
| 2026-04-28 16:53 | -20.06464 | -44.64607 | 4224 ft | 149 kts | 283° |
| 2026-04-28 16:53 | -20.06237 | -44.65646 | 3992 ft | 142 kts | 275° |
| 2026-04-28 16:53 | -20.06294 | -44.66694 | 3757 ft | 138 kts | 263° |
| 2026-04-28 16:53 | -20.06372 | -44.67639 | 3731 ft | 120 kts | 266° |
| 2026-04-28 16:54 | -20.06367 | -44.68482 | 3702 ft | 105 kts | 269° |
| 2026-04-28 16:54 | -20.06355 | -44.69201 | 3681 ft | 92 kts | 272° |
| 2026-04-28 16:54 | -20.06319 | -44.69885 | 3677 ft | 94 kts | 272° |
| 2026-04-28 16:54 | -20.06297 | -44.70363 | 3645 ft | 98 kts | 271° |
| 2026-04-28 16:55 | -20.06223 | -44.71296 | 3658 ft | 97 kts | 278° |
| 2026-04-28 16:55 | -20.06007 | -44.71986 | 3618 ft | 98 kts | 290° |
| 2026-04-28 16:55 | -20.05898 | -44.72681 | 3615 ft | 94 kts | 268° |
| 2026-04-28 16:55 | -20.05925 | -44.73381 | 3574 ft | 95 kts | 264° |
| 2026-04-28 16:56 | -20.06014 | -44.74073 | 3485 ft | 94 kts | 260° |
| 2026-04-28 16:56 | -20.06251 | -44.74676 | 3429 ft | 84 kts | 220° |
| 2026-04-28 16:56 | -20.06794 | -44.74855 | 3317 ft | 85 kts | 181° |
| 2026-04-28 16:56 | -20.07358 | -44.74684 | 3182 ft | 89 kts | 139° |
| 2026-04-28 16:57 | -20.07592 | -44.74104 | 2986 ft | 85 kts | 99° |
| 2026-04-28 16:57 | -20.07607 | -44.73495 | 2826 ft | 79 kts | 89° |
| 2026-04-28 16:57 | -20.07599 | -44.72953 | 2797 ft | 84 kts | 89° |
| 2026-04-28 16:57 | -20.07606 | -44.72226 | 3206 ft | 104 kts | 90° |
| 2026-04-28 16:58 | -20.07455 | -44.71455 | 3581 ft | 108 kts | 46° |
| 2026-04-28 16:58 | -20.06783 | -44.71439 | 3571 ft | 104 kts | 312° |
| 2026-04-28 16:58 | -20.06664 | -44.72170 | 3450 ft | 106 kts | 268° |
| 2026-04-28 16:58 | -20.06677 | -44.72942 | 3362 ft | 103 kts | 268° |
| 2026-04-28 16:59 | -20.06727 | -44.73666 | 3302 ft | 101 kts | 261° |
| 2026-04-28 16:59 | -20.06853 | -44.74407 | 3165 ft | 103 kts | 250° |
| 2026-04-28 16:59 | -20.07374 | -44.74537 | 3125 ft | 82 kts | 144° |
| 2026-04-28 16:59 | -20.07609 | -44.73946 | 2903 ft | 91 kts | 96° |
| 2026-04-28 17:00 | -20.07605 | -44.73339 | 2803 ft | 75 kts | 92° |
| 2026-04-28 17:00 | -20.07599 | -44.72789 | 2822 ft | 92 kts | 89° |
| 2026-04-28 17:00 | -20.07565 | -44.72043 | 3269 ft | 110 kts | 84° |
| 2026-04-28 17:00 | -20.07193 | -44.71373 | 3644 ft | 115 kts | 19° |
| 2026-04-28 17:01 | -20.06458 | -44.71679 | 3629 ft | 122 kts | 297° |
| 2026-04-28 17:01 | -20.06407 | -44.72527 | 3656 ft | 114 kts | 265° |
| 2026-04-28 17:01 | -20.06490 | -44.73362 | 3669 ft | 115 kts | 261° |
| 2026-04-28 17:01 | -20.06612 | -44.74188 | 3532 ft | 111 kts | 260° |
| 2026-04-28 17:02 | -20.06771 | -44.74953 | 3454 ft | 97 kts | 237° |
| 2026-04-28 17:02 | -20.07118 | -44.75213 | 3446 ft | 92 kts | 191° |
| 2026-04-28 17:02 | -20.07612 | -44.74647 | 3131 ft | 96 kts | 96° |
| 2026-04-28 17:02 | -20.07612 | -44.73961 | 2937 ft | 85 kts | 90° |
| 2026-04-28 17:03 | -20.07600 | -44.72742 | 2937 ft | 94 kts | 89° |
| 2026-04-28 17:03 | -20.07543 | -44.72092 | 3312 ft | 92 kts | 90° |
| 2026-04-28 17:03 | -20.07675 | -44.71408 | 3451 ft | 92 kts | 110° |
| 2026-04-28 17:04 | -20.07709 | -44.69948 | 3542 ft | 103 kts | 87° |
| 2026-04-28 17:04 | -20.07490 | -44.69217 | 3453 ft | 108 kts | 53° |
| 2026-04-28 17:05 | -20.06543 | -44.68159 | 3237 ft | 82 kts | 70° |
| 2026-04-28 17:05 | -20.06475 | -44.67567 | 3063 ft | 82 kts | 98° |
| 2026-04-28 17:05 | -20.06618 | -44.66975 | 2938 ft | 83 kts | 114° |
| 2026-04-28 17:06 | -20.07146 | -44.65937 | 2687 ft | 79 kts | 121° |
| 2026-04-28 17:06 | -20.07415 | -44.65488 | 2639 ft | 65 kts | 120° |
| 2026-04-28 17:06 | -20.08084 | -44.64603 | 3239 ft | 82 kts | 195° |
| 2026-04-28 17:07 | -20.08306 | -44.64929 | 3223 ft | 98 kts | 267° |
| 2026-04-28 17:07 | -20.08169 | -44.65949 | 3239 ft | 106 kts | 278° |
| 2026-04-28 17:07 | -20.08018 | -44.66705 | 3191 ft | 103 kts | 291° |
| 2026-04-28 17:07 | -20.07688 | -44.67013 | 3205 ft | 97 kts | 348° |
| 2026-04-28 17:08 | -20.07072 | -44.66864 | 3043 ft | 92 kts | 39° |
| 2026-04-28 17:08 | -20.06978 | -44.66284 | 2796 ft | 85 kts | 118° |
| 2026-04-28 17:08 | -20.07249 | -44.65755 | 2626 ft | 75 kts | 126° |
| 2026-04-28 17:08 | -20.07542 | -44.65251 | 2792 ft | 93 kts | 119° |
| 2026-04-28 17:09 | -20.07852 | -44.64585 | 2976 ft | 97 kts | 118° |
| 2026-04-28 17:09 | -20.08236 | -44.64144 | 3185 ft | 82 kts | 189° |
| 2026-04-28 17:09 | -20.08435 | -44.64688 | 3288 ft | 99 kts | 286° |
| 2026-04-28 17:09 | -20.08226 | -44.65459 | 3408 ft | 113 kts | 284° |
| 2026-04-28 17:10 | -20.08028 | -44.66293 | 3327 ft | 115 kts | 282° |
| 2026-04-28 17:10 | -20.07849 | -44.67046 | 3297 ft | 92 kts | 298° |
| 2026-04-28 17:10 | -20.07342 | -44.67317 | 3188 ft | 89 kts | 5° |
| 2026-04-28 17:10 | -20.06886 | -44.66923 | 3086 ft | 91 kts | 76° |
| 2026-04-28 17:11 | -20.06978 | -44.66262 | 2761 ft | 91 kts | 120° |
| 2026-04-28 17:11 | -20.07262 | -44.65722 | 2626 ft | 76 kts | 122° |
| 2026-04-28 17:11 | -20.07548 | -44.65230 | 2724 ft | 93 kts | 120° |
| 2026-04-28 17:11 | -20.07761 | -44.64597 | 3310 ft | 92 kts | 88° |
| 2026-04-28 17:12 | -20.07609 | -44.63849 | 3772 ft | 105 kts | 73° |
| 2026-04-28 17:12 | -20.07589 | -44.63144 | 4014 ft | 101 kts | 117° |
| 2026-04-28 17:12 | -20.07941 | -44.62384 | 3868 ft | 134 kts | 117° |
| 2026-04-28 17:12 | -20.08317 | -44.61435 | 3932 ft | 138 kts | 105° |
| 2026-04-28 17:13 | -20.08403 | -44.60399 | 4113 ft | 146 kts | 91° |
| 2026-04-28 17:13 | -20.08416 | -44.59302 | 4309 ft | 151 kts | 91° |
| 2026-04-28 17:13 | -20.08130 | -44.58227 | 4521 ft | 155 kts | 63° |
| 2026-04-28 17:13 | -20.07633 | -44.57192 | 4738 ft | 158 kts | 64° |
| 2026-04-28 17:14 | -20.07140 | -44.56145 | 4957 ft | 158 kts | 64° |
| 2026-04-28 17:14 | -20.06657 | -44.55085 | 5170 ft | 160 kts | 66° |
| 2026-04-28 17:14 | -20.06188 | -44.54004 | 5397 ft | 161 kts | 66° |
| 2026-04-28 17:14 | -20.05726 | -44.52908 | 5507 ft | 166 kts | 66° |
| 2026-04-28 17:15 | -20.05236 | -44.51783 | 5516 ft | 171 kts | 65° |
| 2026-04-28 17:15 | -20.04750 | -44.50648 | 5510 ft | 171 kts | 66° |
| 2026-04-28 17:15 | -20.04261 | -44.49501 | 5501 ft | 170 kts | 66° |
| 2026-04-28 17:15 | -20.03772 | -44.48374 | 5505 ft | 165 kts | 65° |
| 2026-04-28 17:16 | -20.03302 | -44.47275 | 5500 ft | 162 kts | 66° |
| 2026-04-28 17:16 | -20.02837 | -44.46178 | 5495 ft | 163 kts | 66° |
| 2026-04-28 17:16 | -20.02369 | -44.45080 | 5495 ft | 164 kts | 66° |
| 2026-04-28 17:16 | -20.01900 | -44.43984 | 5493 ft | 161 kts | 66° |
| 2026-04-28 17:17 | -20.01433 | -44.42900 | 5504 ft | 161 kts | 65° |
| 2026-04-28 17:17 | -20.00970 | -44.41819 | 5493 ft | 160 kts | 66° |
| 2026-04-28 17:17 | -20.00505 | -44.40731 | 5503 ft | 164 kts | 65° |
| 2026-04-28 17:17 | -20.00023 | -44.39628 | 5499 ft | 165 kts | 65° |
| 2026-04-28 17:18 | -19.99540 | -44.38508 | 5510 ft | 169 kts | 66° |
| 2026-04-28 17:18 | -19.99044 | -44.37361 | 5497 ft | 171 kts | 65° |
| 2026-04-28 17:18 | -19.98556 | -44.36222 | 5508 ft | 167 kts | 66° |
| 2026-04-28 17:18 | -19.98079 | -44.35104 | 5507 ft | 165 kts | 66° |
| 2026-04-28 17:19 | -19.97609 | -44.34002 | 5503 ft | 163 kts | 66° |
| 2026-04-28 17:19 | -19.97259 | -44.32881 | 5509 ft | 163 kts | 78° |
| 2026-04-28 17:19 | -19.97016 | -44.31697 | 5500 ft | 165 kts | 76° |
| 2026-04-28 17:19 | -19.96698 | -44.30513 | 5509 ft | 167 kts | 74° |
| 2026-04-28 17:20 | -19.96377 | -44.29369 | 5510 ft | 168 kts | 73° |
| 2026-04-28 17:20 | -19.96162 | -44.28586 | 5509 ft | 166 kts | 75° |
| 2026-04-28 17:20 | -19.95727 | -44.27026 | 5514 ft | 163 kts | 74° |
| 2026-04-28 17:20 | -19.95395 | -44.25851 | 5474 ft | 168 kts | 73° |
| 2026-04-28 17:21 | -19.95055 | -44.24648 | 5358 ft | 172 kts | 73° |
| 2026-04-28 17:21 | -19.94720 | -44.23428 | 5256 ft | 176 kts | 76° |
| 2026-04-28 17:21 | -19.94409 | -44.22154 | 5173 ft | 181 kts | 76° |
| 2026-04-28 17:22 | -19.93758 | -44.19606 | 4956 ft | 171 kts | 75° |
| 2026-04-28 17:22 | -19.93462 | -44.18401 | 4824 ft | 168 kts | 77° |
| 2026-04-28 17:22 | -19.93170 | -44.17194 | 4693 ft | 168 kts | 75° |
| 2026-04-28 17:23 | -19.92580 | -44.14791 | 4442 ft | 168 kts | 76° |
| 2026-04-28 17:23 | -19.92289 | -44.13587 | 4307 ft | 167 kts | 76° |
| 2026-04-28 17:23 | -19.92002 | -44.12398 | 4201 ft | 165 kts | 76° |
| 2026-04-28 17:23 | -19.91717 | -44.11236 | 4186 ft | 159 kts | 76° |
| 2026-04-28 17:24 | -19.91445 | -44.10106 | 4191 ft | 157 kts | 76° |
| 2026-04-28 17:24 | -19.91169 | -44.08986 | 4193 ft | 156 kts | 76° |
| 2026-04-28 17:24 | -19.90894 | -44.07862 | 4191 ft | 161 kts | 76° |
| 2026-04-28 17:24 | -19.90598 | -44.06697 | 4197 ft | 166 kts | 72° |
| 2026-04-28 17:25 | -19.90123 | -44.05581 | 4201 ft | 166 kts | 57° |
| 2026-04-28 17:25 | -19.88711 | -44.03667 | 4188 ft | 152 kts | 52° |
| 2026-04-28 17:25 | -19.88104 | -44.02848 | 4158 ft | 130 kts | 52° |
| 2026-04-28 17:26 | -19.87553 | -44.02108 | 3944 ft | 132 kts | 52° |
| 2026-04-28 17:26 | -19.86977 | -44.01347 | 3853 ft | 128 kts | 51° |
| 2026-04-28 17:26 | -19.86408 | -44.00660 | 3754 ft | 121 kts | 46° |
| 2026-04-28 17:26 | -19.85839 | -44.00084 | 3699 ft | 108 kts | 40° |
| 2026-04-28 17:27 | -19.85271 | -43.99595 | 3551 ft | 99 kts | 38° |
| 2026-04-28 17:27 | -19.84792 | -43.99122 | 3385 ft | 94 kts | 52° |
| 2026-04-28 17:27 | -19.84503 | -43.98565 | 3247 ft | 84 kts | 69° |
| 2026-04-28 17:27 | -19.84364 | -43.97969 | 3076 ft | 82 kts | 85° |
| 2026-04-28 17:28 | -19.84367 | -43.97375 | 2930 ft | 79 kts | 95° |
| 2026-04-28 17:28 | -19.84633 | -43.96257 | 2660 ft | 75 kts | 111° |
| 2026-04-28 17:28 | -19.84803 | -43.95795 | 2582 ft | 56 kts | 111° |
| 2026-04-28 17:29 | -19.84896 | -43.95530 | 2587 ft | 21 kts | 123° |
| 2026-04-28 17:29 | -19.85008 | -43.95546 | 2585 ft | 14 kts | 198° |
| 2026-04-28 17:29 | -19.85064 | -43.95493 | 2583 ft | 12 kts | 115° |
| 2026-04-28 17:30 | -19.85138 | -43.95419 | 2585 ft | 6 kts | 202° |
| 2026-04-28 17:30 | -19.85154 | -43.95403 | 2583 ft | 0 kts | 107° |